sensor_id;sensor_type;location;lat;lon;timestamp;P1;durP1;ratioP1;P2;durP2;ratioP2
74926;SDS011;63488;48.092;-1.640;2023-05-10T00:00:54;9.70;;;1.90;;
74926;SDS011;63488;48.092;-1.640;2023-05-10T00:03:19;13.07;;;2.03;;
74926;SDS011;63488;48.092;-1.640;2023-05-10T00:05:45;6.53;;;1.60;;
74926;SDS011;63488;48.092;-1.640;2023-05-10T00:08:10;8.52;;;1.65;;
74926;SDS011;63488;48.092;-1.640;2023-05-10T00:10:36;9.45;;;1.42;;
74926;SDS011;63488;48.092;-1.640;2023-05-10T00:13:02;12.18;;;1.80;;
74926;SDS011;63488;48.092;-1.640;2023-05-10T00:15:27;13.45;;;1.80;;
74926;SDS011;63488;48.092;-1.640;2023-05-10T00:17:53;11.07;;;1.88;;
74926;SDS011;63488;48.092;-1.640;2023-05-10T00:20:18;8.35;;;1.60;;
74926;SDS011;63488;48.092;-1.640;2023-05-10T00:22:43;11.05;;;1.38;;
74926;SDS011;63488;48.092;-1.640;2023-05-10T00:25:09;9.13;;;1.83;;
74926;SDS011;63488;48.092;-1.640;2023-05-10T00:27:35;8.57;;;1.55;;
74926;SDS011;63488;48.092;-1.640;2023-05-10T00:30:00;10.48;;;2.00;;
74926;SDS011;63488;48.092;-1.640;2023-05-10T00:32:26;8.90;;;1.85;;
74926;SDS011;63488;48.092;-1.640;2023-05-10T00:34:51;8.20;;;1.60;;
74926;SDS011;63488;48.092;-1.640;2023-05-10T00:37:16;7.00;;;1.75;;
74926;SDS011;63488;48.092;-1.640;2023-05-10T00:39:42;11.90;;;1.70;;
74926;SDS011;63488;48.092;-1.640;2023-05-10T00:42:07;12.25;;;1.92;;
74926;SDS011;63488;48.092;-1.640;2023-05-10T00:44:32;12.70;;;1.50;;
74926;SDS011;63488;48.092;-1.640;2023-05-10T00:46:58;10.25;;;1.50;;
74926;SDS011;63488;48.092;-1.640;2023-05-10T00:49:23;12.25;;;2.05;;
74926;SDS011;63488;48.092;-1.640;2023-05-10T00:51:49;11.00;;;2.38;;
74926;SDS011;63488;48.092;-1.640;2023-05-10T00:54:15;9.57;;;1.83;;
74926;SDS011;63488;48.092;-1.640;2023-05-10T00:56:40;10.02;;;1.83;;
74926;SDS011;63488;48.092;-1.640;2023-05-10T00:59:07;12.05;;;2.00;;
74926;SDS011;63488;48.092;-1.640;2023-05-10T01:01:33;12.73;;;2.33;;
74926;SDS011;63488;48.092;-1.640;2023-05-10T01:03:58;10.07;;;1.90;;
74926;SDS011;63488;48.092;-1.640;2023-05-10T01:06:24;10.93;;;1.83;;
74926;SDS011;63488;48.092;-1.640;2023-05-10T01:08:49;11.45;;;1.98;;
74926;SDS011;63488;48.092;-1.640;2023-05-10T01:11:14;11.48;;;2.05;;
74926;SDS011;63488;48.092;-1.640;2023-05-10T01:13:41;11.35;;;2.05;;
74926;SDS011;63488;48.092;-1.640;2023-05-10T01:16:07;10.43;;;1.67;;
74926;SDS011;63488;48.092;-1.640;2023-05-10T01:18:39;11.45;;;1.63;;
74926;SDS011;63488;48.092;-1.640;2023-05-10T01:21:11;9.55;;;1.98;;
74926;SDS011;63488;48.092;-1.640;2023-05-10T01:29:11;8.75;;;2.05;;
74926;SDS011;63488;48.092;-1.640;2023-05-10T01:31:54;10.90;;;2.20;;
74926;SDS011;63488;48.092;-1.640;2023-05-10T01:34:23;12.15;;;2.33;;
74926;SDS011;63488;48.092;-1.640;2023-05-10T01:37:06;10.40;;;2.83;;
74926;SDS011;63488;48.092;-1.640;2023-05-10T01:39:36;13.10;;;2.03;;
74926;SDS011;63488;48.092;-1.640;2023-05-10T01:42:08;12.00;;;1.80;;
74926;SDS011;63488;48.092;-1.640;2023-05-10T01:47:41;8.68;;;1.90;;
74926;SDS011;63488;48.092;-1.640;2023-05-10T01:52:41;11.77;;;2.40;;
74926;SDS011;63488;48.092;-1.640;2023-05-10T01:55:09;14.85;;;2.33;;
74926;SDS011;63488;48.092;-1.640;2023-05-10T01:57:36;15.27;;;2.35;;
74926;SDS011;63488;48.092;-1.640;2023-05-10T02:00:04;11.23;;;2.03;;
74926;SDS011;63488;48.092;-1.640;2023-05-10T02:02:33;11.25;;;1.85;;
74926;SDS011;63488;48.092;-1.640;2023-05-10T02:04:58;12.77;;;2.17;;
74926;SDS011;63488;48.092;-1.640;2023-05-10T02:07:24;11.60;;;2.15;;
74926;SDS011;63488;48.092;-1.640;2023-05-10T02:09:51;14.20;;;2.08;;
74926;SDS011;63488;48.092;-1.640;2023-05-10T02:12:17;11.30;;;1.98;;
74926;SDS011;63488;48.092;-1.640;2023-05-10T02:14:43;12.95;;;2.17;;
74926;SDS011;63488;48.092;-1.640;2023-05-10T02:17:09;13.98;;;2.75;;
74926;SDS011;63488;48.092;-1.640;2023-05-10T02:19:36;10.55;;;2.38;;
74926;SDS011;63488;48.092;-1.640;2023-05-10T02:22:02;9.63;;;2.13;;
74926;SDS011;63488;48.092;-1.640;2023-05-10T02:24:28;8.55;;;1.88;;
74926;SDS011;63488;48.092;-1.640;2023-05-10T02:26:53;13.50;;;2.25;;
74926;SDS011;63488;48.092;-1.640;2023-05-10T02:29:20;11.05;;;2.10;;
74926;SDS011;63488;48.092;-1.640;2023-05-10T02:31:48;14.30;;;2.53;;
74926;SDS011;63488;48.092;-1.640;2023-05-10T02:34:15;10.95;;;1.88;;
74926;SDS011;63488;48.092;-1.640;2023-05-10T02:36:40;14.90;;;1.98;;
74926;SDS011;63488;48.092;-1.640;2023-05-10T02:39:06;12.30;;;1.80;;
74926;SDS011;63488;48.092;-1.640;2023-05-10T02:41:35;11.57;;;1.95;;
74926;SDS011;63488;48.092;-1.640;2023-05-10T02:44:01;12.35;;;1.90;;
74926;SDS011;63488;48.092;-1.640;2023-05-10T02:46:27;12.93;;;2.45;;
74926;SDS011;63488;48.092;-1.640;2023-05-10T02:48:53;14.10;;;2.42;;
74926;SDS011;63488;48.092;-1.640;2023-05-10T02:51:18;14.00;;;2.42;;
74926;SDS011;63488;48.092;-1.640;2023-05-10T02:53:46;14.63;;;2.20;;
74926;SDS011;63488;48.092;-1.640;2023-05-10T02:56:13;13.35;;;2.60;;
74926;SDS011;63488;48.092;-1.640;2023-05-10T02:58:40;15.63;;;3.25;;
74926;SDS011;63488;48.092;-1.640;2023-05-10T03:01:05;12.57;;;2.17;;
74926;SDS011;63488;48.092;-1.640;2023-05-10T03:03:32;12.68;;;2.53;;
74926;SDS011;63488;48.092;-1.640;2023-05-10T03:05:58;12.13;;;2.13;;
74926;SDS011;63488;48.092;-1.640;2023-05-10T03:08:23;12.10;;;2.53;;
74926;SDS011;63488;48.092;-1.640;2023-05-10T03:11:15;10.77;;;2.38;;
74926;SDS011;63488;48.092;-1.640;2023-05-10T03:13:46;13.20;;;2.20;;
74926;SDS011;63488;48.092;-1.640;2023-05-10T03:16:21;17.53;;;2.60;;
74926;SDS011;63488;48.092;-1.640;2023-05-10T03:18:48;15.95;;;2.78;;
74926;SDS011;63488;48.092;-1.640;2023-05-10T03:21:16;12.15;;;2.17;;
74926;SDS011;63488;48.092;-1.640;2023-05-10T03:23:43;11.77;;;2.05;;
74926;SDS011;63488;48.092;-1.640;2023-05-10T03:26:09;10.65;;;2.13;;
74926;SDS011;63488;48.092;-1.640;2023-05-10T03:28:38;12.05;;;2.30;;
74926;SDS011;63488;48.092;-1.640;2023-05-10T03:31:04;13.95;;;2.30;;
74926;SDS011;63488;48.092;-1.640;2023-05-10T03:33:31;16.40;;;2.38;;
74926;SDS011;63488;48.092;-1.640;2023-05-10T03:35:56;11.65;;;2.42;;
74926;SDS011;63488;48.092;-1.640;2023-05-10T03:38:22;13.00;;;2.75;;
74926;SDS011;63488;48.092;-1.640;2023-05-10T03:40:47;13.10;;;2.55;;
74926;SDS011;63488;48.092;-1.640;2023-05-10T03:43:12;14.23;;;2.17;;
74926;SDS011;63488;48.092;-1.640;2023-05-10T03:45:38;16.08;;;2.67;;
74926;SDS011;63488;48.092;-1.640;2023-05-10T03:48:03;14.45;;;2.13;;
74926;SDS011;63488;48.092;-1.640;2023-05-10T03:50:28;12.18;;;2.10;;
74926;SDS011;63488;48.092;-1.640;2023-05-10T03:52:54;14.68;;;1.92;;
74926;SDS011;63488;48.092;-1.640;2023-05-10T03:55:20;13.93;;;2.50;;
74926;SDS011;63488;48.092;-1.640;2023-05-10T03:57:45;13.07;;;2.33;;
74926;SDS011;63488;48.092;-1.640;2023-05-10T04:00:10;11.57;;;2.25;;
74926;SDS011;63488;48.092;-1.640;2023-05-10T04:02:36;13.18;;;2.20;;
74926;SDS011;63488;48.092;-1.640;2023-05-10T04:05:01;11.18;;;2.75;;
74926;SDS011;63488;48.092;-1.640;2023-05-10T04:07:27;13.15;;;2.20;;
74926;SDS011;63488;48.092;-1.640;2023-05-10T04:09:52;17.50;;;2.83;;
74926;SDS011;63488;48.092;-1.640;2023-05-10T04:12:18;16.20;;;2.67;;
74926;SDS011;63488;48.092;-1.640;2023-05-10T04:14:43;12.32;;;2.05;;
74926;SDS011;63488;48.092;-1.640;2023-05-10T04:17:08;16.88;;;2.85;;
74926;SDS011;63488;48.092;-1.640;2023-05-10T04:19:34;13.20;;;2.40;;
74926;SDS011;63488;48.092;-1.640;2023-05-10T04:21:59;14.25;;;2.40;;
74926;SDS011;63488;48.092;-1.640;2023-05-10T04:24:25;17.58;;;2.42;;
74926;SDS011;63488;48.092;-1.640;2023-05-10T04:26:51;12.68;;;2.10;;
74926;SDS011;63488;48.092;-1.640;2023-05-10T04:29:16;14.20;;;2.90;;
74926;SDS011;63488;48.092;-1.640;2023-05-10T04:31:42;14.70;;;2.28;;
74926;SDS011;63488;48.092;-1.640;2023-05-10T04:34:07;12.93;;;1.88;;
74926;SDS011;63488;48.092;-1.640;2023-05-10T04:36:32;15.60;;;2.63;;
74926;SDS011;63488;48.092;-1.640;2023-05-10T04:39:00;15.20;;;2.13;;
74926;SDS011;63488;48.092;-1.640;2023-05-10T04:41:25;16.50;;;2.20;;
74926;SDS011;63488;48.092;-1.640;2023-05-10T04:43:51;12.52;;;2.83;;
74926;SDS011;63488;48.092;-1.640;2023-05-10T04:46:16;15.05;;;1.90;;
74926;SDS011;63488;48.092;-1.640;2023-05-10T04:48:42;12.25;;;2.40;;
74926;SDS011;63488;48.092;-1.640;2023-05-10T04:51:07;9.80;;;2.10;;
74926;SDS011;63488;48.092;-1.640;2023-05-10T04:53:32;10.25;;;1.60;;
74926;SDS011;63488;48.092;-1.640;2023-05-10T04:55:57;7.18;;;2.20;;
74926;SDS011;63488;48.092;-1.640;2023-05-10T04:58:23;12.32;;;2.50;;
74926;SDS011;63488;48.092;-1.640;2023-05-10T05:00:48;10.77;;;2.67;;
74926;SDS011;63488;48.092;-1.640;2023-05-10T05:03:14;11.50;;;1.85;;
74926;SDS011;63488;48.092;-1.640;2023-05-10T05:05:39;10.63;;;2.20;;
74926;SDS011;63488;48.092;-1.640;2023-05-10T05:08:05;11.13;;;2.10;;
74926;SDS011;63488;48.092;-1.640;2023-05-10T05:10:30;8.48;;;1.75;;
74926;SDS011;63488;48.092;-1.640;2023-05-10T05:12:55;10.07;;;1.85;;
74926;SDS011;63488;48.092;-1.640;2023-05-10T05:15:21;11.48;;;2.17;;
74926;SDS011;63488;48.092;-1.640;2023-05-10T05:17:46;11.13;;;1.77;;
74926;SDS011;63488;48.092;-1.640;2023-05-10T05:20:12;11.02;;;2.40;;
74926;SDS011;63488;48.092;-1.640;2023-05-10T05:22:38;7.60;;;1.55;;
74926;SDS011;63488;48.092;-1.640;2023-05-10T05:25:04;13.65;;;2.28;;
74926;SDS011;63488;48.092;-1.640;2023-05-10T05:27:29;10.57;;;1.80;;
74926;SDS011;63488;48.092;-1.640;2023-05-10T05:29:55;12.88;;;2.08;;
74926;SDS011;63488;48.092;-1.640;2023-05-10T05:32:20;8.93;;;2.03;;
74926;SDS011;63488;48.092;-1.640;2023-05-10T05:34:45;8.18;;;1.80;;
74926;SDS011;63488;48.092;-1.640;2023-05-10T05:37:18;9.95;;;2.28;;
74926;SDS011;63488;48.092;-1.640;2023-05-10T05:39:44;8.63;;;2.00;;
74926;SDS011;63488;48.092;-1.640;2023-05-10T05:42:09;13.10;;;2.00;;
74926;SDS011;63488;48.092;-1.640;2023-05-10T05:44:35;11.57;;;2.35;;
74926;SDS011;63488;48.092;-1.640;2023-05-10T05:47:00;14.18;;;1.90;;
74926;SDS011;63488;48.092;-1.640;2023-05-10T05:49:25;11.73;;;3.05;;
74926;SDS011;63488;48.092;-1.640;2023-05-10T05:51:51;12.50;;;2.08;;
74926;SDS011;63488;48.092;-1.640;2023-05-10T05:54:16;11.77;;;1.92;;
74926;SDS011;63488;48.092;-1.640;2023-05-10T05:56:41;13.52;;;2.08;;
74926;SDS011;63488;48.092;-1.640;2023-05-10T05:59:07;12.85;;;2.60;;
74926;SDS011;63488;48.092;-1.640;2023-05-10T06:01:33;14.38;;;2.20;;
74926;SDS011;63488;48.092;-1.640;2023-05-10T06:03:58;8.27;;;1.80;;
74926;SDS011;63488;48.092;-1.640;2023-05-10T06:06:23;13.90;;;1.98;;
74926;SDS011;63488;48.092;-1.640;2023-05-10T06:08:49;12.25;;;2.35;;
74926;SDS011;63488;48.092;-1.640;2023-05-10T06:11:14;13.10;;;2.25;;
74926;SDS011;63488;48.092;-1.640;2023-05-10T06:13:39;11.75;;;1.95;;
74926;SDS011;63488;48.092;-1.640;2023-05-10T06:16:05;16.23;;;2.53;;
74926;SDS011;63488;48.092;-1.640;2023-05-10T06:18:30;12.02;;;2.42;;
74926;SDS011;63488;48.092;-1.640;2023-05-10T06:20:56;12.60;;;2.20;;
74926;SDS011;63488;48.092;-1.640;2023-05-10T06:23:22;14.13;;;2.67;;
74926;SDS011;63488;48.092;-1.640;2023-05-10T06:25:48;9.45;;;1.77;;
74926;SDS011;63488;48.092;-1.640;2023-05-10T06:28:13;13.20;;;2.15;;
74926;SDS011;63488;48.092;-1.640;2023-05-10T06:30:38;12.48;;;2.25;;
74926;SDS011;63488;48.092;-1.640;2023-05-10T06:33:04;12.05;;;2.00;;
74926;SDS011;63488;48.092;-1.640;2023-05-10T06:35:29;12.32;;;2.33;;
74926;SDS011;63488;48.092;-1.640;2023-05-10T06:37:56;12.35;;;1.80;;
74926;SDS011;63488;48.092;-1.640;2023-05-10T06:40:21;9.50;;;2.03;;
74926;SDS011;63488;48.092;-1.640;2023-05-10T06:42:47;9.20;;;1.80;;
74926;SDS011;63488;48.092;-1.640;2023-05-10T06:45:13;15.73;;;2.20;;
74926;SDS011;63488;48.092;-1.640;2023-05-10T06:47:39;10.23;;;2.08;;
74926;SDS011;63488;48.092;-1.640;2023-05-10T06:50:05;12.57;;;2.20;;
74926;SDS011;63488;48.092;-1.640;2023-05-10T06:52:31;10.07;;;1.73;;
74926;SDS011;63488;48.092;-1.640;2023-05-10T06:54:56;15.15;;;2.25;;
74926;SDS011;63488;48.092;-1.640;2023-05-10T06:57:22;13.30;;;2.70;;
74926;SDS011;63488;48.092;-1.640;2023-05-10T06:59:47;17.13;;;2.67;;
74926;SDS011;63488;48.092;-1.640;2023-05-10T07:02:13;12.85;;;2.10;;
74926;SDS011;63488;48.092;-1.640;2023-05-10T07:04:39;12.82;;;2.53;;
74926;SDS011;63488;48.092;-1.640;2023-05-10T07:07:05;15.85;;;2.28;;
74926;SDS011;63488;48.092;-1.640;2023-05-10T07:09:30;13.15;;;2.03;;
74926;SDS011;63488;48.092;-1.640;2023-05-10T07:11:55;13.88;;;2.33;;
74926;SDS011;63488;48.092;-1.640;2023-05-10T07:14:22;13.10;;;2.53;;
74926;SDS011;63488;48.092;-1.640;2023-05-10T07:16:47;15.27;;;2.33;;
74926;SDS011;63488;48.092;-1.640;2023-05-10T07:19:12;14.05;;;2.47;;
74926;SDS011;63488;48.092;-1.640;2023-05-10T07:21:38;10.73;;;1.90;;
74926;SDS011;63488;48.092;-1.640;2023-05-10T07:24:05;13.88;;;2.40;;
74926;SDS011;63488;48.092;-1.640;2023-05-10T07:26:31;9.63;;;2.10;;
74926;SDS011;63488;48.092;-1.640;2023-05-10T07:28:56;15.75;;;2.95;;
74926;SDS011;63488;48.092;-1.640;2023-05-10T07:31:21;12.07;;;2.40;;
74926;SDS011;63488;48.092;-1.640;2023-05-10T07:33:47;13.18;;;2.13;;
74926;SDS011;63488;48.092;-1.640;2023-05-10T07:36:12;12.60;;;1.85;;
74926;SDS011;63488;48.092;-1.640;2023-05-10T07:38:38;10.55;;;2.30;;
74926;SDS011;63488;48.092;-1.640;2023-05-10T07:41:05;12.30;;;2.45;;
74926;SDS011;63488;48.092;-1.640;2023-05-10T07:43:32;16.50;;;2.53;;
74926;SDS011;63488;48.092;-1.640;2023-05-10T07:45:58;12.02;;;2.05;;
74926;SDS011;63488;48.092;-1.640;2023-05-10T07:48:24;14.57;;;2.70;;
74926;SDS011;63488;48.092;-1.640;2023-05-10T07:50:50;12.93;;;2.08;;
74926;SDS011;63488;48.092;-1.640;2023-05-10T07:53:16;11.27;;;2.40;;
74926;SDS011;63488;48.092;-1.640;2023-05-10T07:55:43;8.38;;;2.05;;
74926;SDS011;63488;48.092;-1.640;2023-05-10T07:58:09;12.98;;;2.38;;
74926;SDS011;63488;48.092;-1.640;2023-05-10T08:00:34;11.88;;;2.38;;
74926;SDS011;63488;48.092;-1.640;2023-05-10T08:02:59;9.48;;;1.85;;
74926;SDS011;63488;48.092;-1.640;2023-05-10T08:05:25;8.65;;;1.73;;
74926;SDS011;63488;48.092;-1.640;2023-05-10T08:07:50;8.40;;;1.85;;
74926;SDS011;63488;48.092;-1.640;2023-05-10T08:10:16;10.02;;;1.88;;
74926;SDS011;63488;48.092;-1.640;2023-05-10T08:12:41;10.15;;;1.73;;
74926;SDS011;63488;48.092;-1.640;2023-05-10T08:15:07;10.90;;;1.88;;
74926;SDS011;63488;48.092;-1.640;2023-05-10T08:17:33;12.35;;;2.22;;
74926;SDS011;63488;48.092;-1.640;2023-05-10T08:19:58;7.93;;;1.80;;
74926;SDS011;63488;48.092;-1.640;2023-05-10T08:22:23;9.38;;;2.13;;
74926;SDS011;63488;48.092;-1.640;2023-05-10T08:24:49;12.35;;;2.10;;
74926;SDS011;63488;48.092;-1.640;2023-05-10T08:27:14;10.50;;;1.85;;
74926;SDS011;63488;48.092;-1.640;2023-05-10T08:29:40;9.68;;;1.77;;
74926;SDS011;63488;48.092;-1.640;2023-05-10T08:32:05;8.45;;;1.67;;
74926;SDS011;63488;48.092;-1.640;2023-05-10T08:34:30;9.15;;;1.90;;
74926;SDS011;63488;48.092;-1.640;2023-05-10T08:36:56;12.35;;;2.05;;
74926;SDS011;63488;48.092;-1.640;2023-05-10T08:39:22;7.30;;;1.52;;
74926;SDS011;63488;48.092;-1.640;2023-05-10T08:41:48;7.78;;;1.80;;
74926;SDS011;63488;48.092;-1.640;2023-05-10T08:44:21;12.07;;;1.60;;
74926;SDS011;63488;48.092;-1.640;2023-05-10T08:46:52;9.90;;;1.80;;
74926;SDS011;63488;48.092;-1.640;2023-05-10T08:49:19;8.30;;;1.83;;
74926;SDS011;63488;48.092;-1.640;2023-05-10T08:51:47;8.02;;;2.00;;
74926;SDS011;63488;48.092;-1.640;2023-05-10T08:54:14;8.05;;;1.77;;
74926;SDS011;63488;48.092;-1.640;2023-05-10T08:56:40;9.32;;;2.08;;
74926;SDS011;63488;48.092;-1.640;2023-05-10T08:59:06;7.32;;;1.92;;
74926;SDS011;63488;48.092;-1.640;2023-05-10T09:01:32;9.30;;;1.95;;
74926;SDS011;63488;48.092;-1.640;2023-05-10T09:04:02;6.63;;;1.60;;
74926;SDS011;63488;48.092;-1.640;2023-05-10T09:06:30;9.07;;;2.08;;
74926;SDS011;63488;48.092;-1.640;2023-05-10T09:09:07;6.07;;;1.70;;
74926;SDS011;63488;48.092;-1.640;2023-05-10T09:11:32;7.07;;;1.50;;
74926;SDS011;63488;48.092;-1.640;2023-05-10T09:13:58;8.27;;;1.50;;
74926;SDS011;63488;48.092;-1.640;2023-05-10T09:16:23;8.52;;;1.63;;
74926;SDS011;63488;48.092;-1.640;2023-05-10T09:18:49;7.65;;;1.90;;
74926;SDS011;63488;48.092;-1.640;2023-05-10T09:21:14;5.43;;;1.40;;
74926;SDS011;63488;48.092;-1.640;2023-05-10T09:23:47;7.75;;;1.55;;
74926;SDS011;63488;48.092;-1.640;2023-05-10T09:26:14;7.15;;;1.60;;
74926;SDS011;63488;48.092;-1.640;2023-05-10T09:31:15;4.78;;;1.50;;
74926;SDS011;63488;48.092;-1.640;2023-05-10T09:33:44;6.57;;;2.00;;
74926;SDS011;63488;48.092;-1.640;2023-05-10T09:36:11;9.27;;;1.90;;
74926;SDS011;63488;48.092;-1.640;2023-05-10T09:38:58;8.00;;;2.08;;
74926;SDS011;63488;48.092;-1.640;2023-05-10T09:41:24;7.15;;;1.90;;
74926;SDS011;63488;48.092;-1.640;2023-05-10T09:43:50;7.60;;;1.80;;
74926;SDS011;63488;48.092;-1.640;2023-05-10T09:46:15;6.38;;;1.67;;
74926;SDS011;63488;48.092;-1.640;2023-05-10T09:48:42;7.68;;;1.70;;
74926;SDS011;63488;48.092;-1.640;2023-05-10T09:51:07;8.98;;;1.95;;
74926;SDS011;63488;48.092;-1.640;2023-05-10T09:53:33;11.52;;;2.10;;
74926;SDS011;63488;48.092;-1.640;2023-05-10T09:55:58;8.63;;;2.00;;
74926;SDS011;63488;48.092;-1.640;2023-05-10T09:58:24;10.65;;;2.30;;
74926;SDS011;63488;48.092;-1.640;2023-05-10T10:00:49;5.88;;;2.00;;
74926;SDS011;63488;48.092;-1.640;2023-05-10T10:03:18;10.23;;;2.10;;
74926;SDS011;63488;48.092;-1.640;2023-05-10T10:05:43;10.93;;;1.95;;
74926;SDS011;63488;48.092;-1.640;2023-05-10T10:08:09;8.18;;;1.80;;
74926;SDS011;63488;48.092;-1.640;2023-05-10T10:10:35;8.40;;;1.77;;
74926;SDS011;63488;48.092;-1.640;2023-05-10T10:13:00;8.65;;;1.90;;
74926;SDS011;63488;48.092;-1.640;2023-05-10T10:15:26;9.27;;;2.22;;
74926;SDS011;63488;48.092;-1.640;2023-05-10T10:17:52;11.85;;;1.92;;
74926;SDS011;63488;48.092;-1.640;2023-05-10T10:20:19;7.00;;;2.03;;
74926;SDS011;63488;48.092;-1.640;2023-05-10T10:22:44;8.32;;;1.63;;
74926;SDS011;63488;48.092;-1.640;2023-05-10T10:25:11;6.80;;;1.60;;
74926;SDS011;63488;48.092;-1.640;2023-05-10T10:32:59;7.13;;;1.85;;
74926;SDS011;63488;48.092;-1.640;2023-05-10T10:35:28;6.20;;;1.58;;
74926;SDS011;63488;48.092;-1.640;2023-05-10T10:37:54;7.75;;;1.58;;
74926;SDS011;63488;48.092;-1.640;2023-05-10T10:40:32;6.63;;;1.20;;
74926;SDS011;63488;48.092;-1.640;2023-05-10T10:42:59;6.28;;;1.40;;
74926;SDS011;63488;48.092;-1.640;2023-05-10T10:45:43;6.28;;;1.40;;
74926;SDS011;63488;48.092;-1.640;2023-05-10T10:48:21;6.45;;;1.45;;
74926;SDS011;63488;48.092;-1.640;2023-05-10T10:50:47;5.15;;;1.70;;
74926;SDS011;63488;48.092;-1.640;2023-05-10T10:53:13;6.47;;;1.42;;
74926;SDS011;63488;48.092;-1.640;2023-05-10T10:55:47;6.63;;;1.30;;
74926;SDS011;63488;48.092;-1.640;2023-05-10T10:58:34;5.20;;;1.27;;
74926;SDS011;63488;48.092;-1.640;2023-05-10T11:01:17;4.45;;;1.15;;
74926;SDS011;63488;48.092;-1.640;2023-05-10T11:06:45;4.70;;;1.17;;
74926;SDS011;63488;48.092;-1.640;2023-05-10T11:09:11;5.63;;;1.05;;
74926;SDS011;63488;48.092;-1.640;2023-05-10T11:11:48;4.60;;;1.02;;
74926;SDS011;63488;48.092;-1.640;2023-05-10T11:14:13;5.97;;;1.38;;
74926;SDS011;63488;48.092;-1.640;2023-05-10T11:16:42;2.95;;;0.80;;
74926;SDS011;63488;48.092;-1.640;2023-05-10T11:19:10;5.15;;;1.00;;
74926;SDS011;63488;48.092;-1.640;2023-05-10T11:21:44;5.00;;;0.85;;
74926;SDS011;63488;48.092;-1.640;2023-05-10T11:24:13;3.65;;;0.95;;
74926;SDS011;63488;48.092;-1.640;2023-05-10T11:26:40;3.08;;;1.00;;
74926;SDS011;63488;48.092;-1.640;2023-05-10T11:29:07;3.35;;;1.00;;
74926;SDS011;63488;48.092;-1.640;2023-05-10T11:31:33;6.38;;;1.30;;
74926;SDS011;63488;48.092;-1.640;2023-05-10T11:33:59;3.70;;;0.75;;
74926;SDS011;63488;48.092;-1.640;2023-05-10T11:36:28;4.72;;;0.90;;
74926;SDS011;63488;48.092;-1.640;2023-05-10T11:38:57;3.97;;;0.93;;
74926;SDS011;63488;48.092;-1.640;2023-05-10T11:41:24;3.95;;;0.90;;
74926;SDS011;63488;48.092;-1.640;2023-05-10T11:43:50;2.90;;;0.70;;
74926;SDS011;63488;48.092;-1.640;2023-05-10T11:46:18;3.05;;;1.10;;
74926;SDS011;63488;48.092;-1.640;2023-05-10T11:48:44;5.45;;;0.60;;
74926;SDS011;63488;48.092;-1.640;2023-05-10T11:51:10;2.70;;;0.63;;
74926;SDS011;63488;48.092;-1.640;2023-05-10T11:53:36;2.47;;;0.60;;
74926;SDS011;63488;48.092;-1.640;2023-05-10T11:56:11;2.75;;;0.70;;
74926;SDS011;63488;48.092;-1.640;2023-05-10T11:58:37;2.13;;;0.90;;
74926;SDS011;63488;48.092;-1.640;2023-05-10T12:01:06;3.78;;;0.90;;
74926;SDS011;63488;48.092;-1.640;2023-05-10T12:03:31;1.63;;;0.70;;
74926;SDS011;63488;48.092;-1.640;2023-05-10T12:05:57;6.82;;;1.25;;
74926;SDS011;63488;48.092;-1.640;2023-05-10T12:08:24;6.85;;;1.10;;
74926;SDS011;63488;48.092;-1.640;2023-05-10T12:10:50;5.32;;;1.10;;
74926;SDS011;63488;48.092;-1.640;2023-05-10T12:13:16;3.78;;;0.98;;
74926;SDS011;63488;48.092;-1.640;2023-05-10T12:15:42;4.15;;;0.95;;
74926;SDS011;63488;48.092;-1.640;2023-05-10T12:18:09;3.10;;;0.88;;
74926;SDS011;63488;48.092;-1.640;2023-05-10T12:20:35;3.30;;;0.70;;
74926;SDS011;63488;48.092;-1.640;2023-05-10T12:23:01;3.63;;;0.70;;
74926;SDS011;63488;48.092;-1.640;2023-05-10T12:25:34;3.38;;;0.70;;
74926;SDS011;63488;48.092;-1.640;2023-05-10T12:28:00;2.80;;;0.65;;
74926;SDS011;63488;48.092;-1.640;2023-05-10T12:30:30;2.92;;;0.50;;
74926;SDS011;63488;48.092;-1.640;2023-05-10T12:33:02;3.17;;;0.77;;
74926;SDS011;63488;48.092;-1.640;2023-05-10T12:35:31;4.22;;;0.90;;
74926;SDS011;63488;48.092;-1.640;2023-05-10T12:38:01;5.15;;;1.00;;
74926;SDS011;63488;48.092;-1.640;2023-05-10T12:40:47;4.13;;;1.02;;
74926;SDS011;63488;48.092;-1.640;2023-05-10T12:43:12;4.80;;;1.20;;
74926;SDS011;63488;48.092;-1.640;2023-05-10T12:45:38;4.70;;;1.55;;
74926;SDS011;63488;48.092;-1.640;2023-05-10T12:48:03;3.60;;;1.00;;
74926;SDS011;63488;48.092;-1.640;2023-05-10T12:50:28;5.88;;;1.10;;
74926;SDS011;63488;48.092;-1.640;2023-05-10T12:52:54;5.18;;;1.40;;
74926;SDS011;63488;48.092;-1.640;2023-05-10T12:55:19;3.45;;;1.05;;
74926;SDS011;63488;48.092;-1.640;2023-05-10T12:57:45;4.93;;;1.20;;
74926;SDS011;63488;48.092;-1.640;2023-05-10T13:00:10;4.93;;;1.27;;
74926;SDS011;63488;48.092;-1.640;2023-05-10T13:02:35;4.65;;;1.65;;
74926;SDS011;63488;48.092;-1.640;2023-05-10T13:05:02;4.25;;;1.30;;
74926;SDS011;63488;48.092;-1.640;2023-05-10T13:07:28;6.20;;;1.30;;
74926;SDS011;63488;48.092;-1.640;2023-05-10T13:09:53;6.97;;;1.90;;
74926;SDS011;63488;48.092;-1.640;2023-05-10T13:12:19;4.88;;;2.13;;
74926;SDS011;63488;48.092;-1.640;2023-05-10T13:14:44;5.82;;;1.58;;
74926;SDS011;63488;48.092;-1.640;2023-05-10T13:17:10;3.58;;;1.25;;
74926;SDS011;63488;48.092;-1.640;2023-05-10T13:19:49;8.90;;;1.73;;
74926;SDS011;63488;48.092;-1.640;2023-05-10T13:25:41;5.95;;;1.30;;
74926;SDS011;63488;48.092;-1.640;2023-05-10T13:28:07;5.65;;;2.17;;
74926;SDS011;63488;48.092;-1.640;2023-05-10T13:30:34;3.33;;;1.38;;
74926;SDS011;63488;48.092;-1.640;2023-05-10T13:33:00;3.90;;;1.00;;
74926;SDS011;63488;48.092;-1.640;2023-05-10T13:35:25;5.70;;;1.25;;
74926;SDS011;63488;48.092;-1.640;2023-05-10T13:37:50;3.50;;;1.23;;
74926;SDS011;63488;48.092;-1.640;2023-05-10T13:40:18;5.50;;;1.23;;
74926;SDS011;63488;48.092;-1.640;2023-05-10T13:42:45;4.18;;;1.10;;
74926;SDS011;63488;48.092;-1.640;2023-05-10T13:45:12;4.93;;;0.82;;
74926;SDS011;63488;48.092;-1.640;2023-05-10T13:47:39;3.55;;;1.00;;
74926;SDS011;63488;48.092;-1.640;2023-05-10T13:50:06;4.78;;;1.30;;
74926;SDS011;63488;48.092;-1.640;2023-05-10T13:52:31;5.05;;;1.20;;
74926;SDS011;63488;48.092;-1.640;2023-05-10T13:54:57;3.38;;;0.82;;
74926;SDS011;63488;48.092;-1.640;2023-05-10T13:57:22;3.22;;;0.63;;
74926;SDS011;63488;48.092;-1.640;2023-05-10T13:59:48;4.70;;;0.85;;
74926;SDS011;63488;48.092;-1.640;2023-05-10T14:02:14;1.77;;;0.40;;
74926;SDS011;63488;48.092;-1.640;2023-05-10T14:04:39;2.17;;;0.57;;
74926;SDS011;63488;48.092;-1.640;2023-05-10T14:07:05;2.17;;;0.50;;
74926;SDS011;63488;48.092;-1.640;2023-05-10T14:09:30;2.20;;;0.75;;
74926;SDS011;63488;48.092;-1.640;2023-05-10T14:11:56;4.32;;;0.65;;
74926;SDS011;63488;48.092;-1.640;2023-05-10T14:14:24;4.95;;;1.50;;
74926;SDS011;63488;48.092;-1.640;2023-05-10T14:16:49;4.28;;;1.00;;
74926;SDS011;63488;48.092;-1.640;2023-05-10T14:19:15;2.33;;;0.75;;
74926;SDS011;63488;48.092;-1.640;2023-05-10T14:21:40;3.53;;;0.70;;
74926;SDS011;63488;48.092;-1.640;2023-05-10T14:24:06;3.83;;;0.70;;
74926;SDS011;63488;48.092;-1.640;2023-05-10T14:26:32;3.33;;;0.80;;
74926;SDS011;63488;48.092;-1.640;2023-05-10T14:28:58;5.22;;;0.75;;
74926;SDS011;63488;48.092;-1.640;2023-05-10T14:31:23;2.42;;;0.85;;
74926;SDS011;63488;48.092;-1.640;2023-05-10T14:33:50;5.65;;;1.00;;
74926;SDS011;63488;48.092;-1.640;2023-05-10T14:36:15;3.83;;;0.98;;
74926;SDS011;63488;48.092;-1.640;2023-05-10T14:38:41;2.78;;;1.08;;
74926;SDS011;63488;48.092;-1.640;2023-05-10T14:41:07;4.40;;;1.00;;
74926;SDS011;63488;48.092;-1.640;2023-05-10T14:43:32;3.58;;;0.98;;
74926;SDS011;63488;48.092;-1.640;2023-05-10T14:45:58;3.22;;;1.00;;
74926;SDS011;63488;48.092;-1.640;2023-05-10T14:48:23;3.30;;;0.82;;
74926;SDS011;63488;48.092;-1.640;2023-05-10T14:50:49;6.20;;;1.05;;